createdAt,value
2018-09-14T00:02:10.729Z,15.30
2018-09-14T00:04:40.645Z,15.30
2018-09-14T00:07:09.340Z,15.30
2018-09-14T00:09:37.498Z,15.30
2018-09-14T00:12:07.074Z,15.30
2018-09-14T00:14:35.230Z,15.30
2018-09-14T00:17:03.401Z,15.30
2018-09-14T00:19:31.580Z,15.40
2018-09-14T00:22:01.335Z,15.40
2018-09-14T00:24:29.462Z,15.40
2018-09-14T00:26:57.677Z,15.50
2018-09-14T00:29:25.869Z,15.50
2018-09-14T00:31:54.038Z,15.50
2018-09-14T00:34:22.230Z,15.50
2018-09-14T00:36:50.382Z,15.40
2018-09-14T00:39:18.613Z,15.40
2018-09-14T00:41:46.825Z,15.40
2018-09-14T00:44:14.987Z,15.40
2018-09-14T00:46:43.163Z,15.40
2018-09-14T00:49:11.328Z,15.40
2018-09-14T00:51:39.694Z,15.50
2018-09-14T00:54:07.874Z,15.40
2018-09-14T00:56:36.069Z,15.40
2018-09-14T00:59:04.462Z,15.40
2018-09-14T01:01:32.659Z,15.50
2018-09-14T01:04:00.845Z,15.50
2018-09-14T01:06:29.030Z,15.50
2018-09-14T01:08:57.218Z,15.60
2018-09-14T01:11:25.354Z,15.50
2018-09-14T01:13:54.078Z,15.40
2018-09-14T01:16:22.252Z,15.40
2018-09-14T01:18:50.418Z,15.40
2018-09-14T01:21:18.599Z,15.40
2018-09-14T01:23:46.782Z,15.40
2018-09-14T01:26:14.974Z,15.50
2018-09-14T01:28:43.122Z,15.50
2018-09-14T01:31:11.312Z,15.40
2018-09-14T01:33:39.511Z,15.40
2018-09-14T01:36:11.026Z,15.40
2018-09-14T01:38:40.785Z,15.40
2018-09-14T01:41:09.253Z,15.40
2018-09-14T01:43:37.450Z,15.30
2018-09-14T01:46:05.839Z,15.30
2018-09-14T01:48:34.150Z,15.30
2018-09-14T01:51:02.298Z,15.30
2018-09-14T01:53:30.466Z,15.30
2018-09-14T01:56:02.387Z,15.40
2018-09-14T01:58:30.578Z,15.30
2018-09-14T02:01:02.212Z,15.40
2018-09-14T02:03:33.151Z,15.40
2018-09-14T02:06:01.317Z,15.40
2018-09-14T02:08:29.526Z,15.40
2018-09-14T02:10:57.699Z,15.30
2018-09-14T02:13:25.866Z,15.30
2018-09-14T02:15:54.003Z,15.30
2018-09-14T02:18:22.190Z,15.30
2018-09-14T02:20:50.342Z,15.30
2018-09-14T02:23:19.201Z,15.30
2018-09-14T02:25:47.410Z,15.30
2018-09-14T02:28:15.597Z,15.30
2018-09-14T02:30:43.786Z,15.30
2018-09-14T02:33:12.004Z,15.20
2018-09-14T02:35:40.194Z,15.20
2018-09-14T02:38:08.629Z,15.20
2018-09-14T02:40:36.889Z,15.20
2018-09-14T02:43:05.076Z,15.10
2018-09-14T02:45:33.251Z,15.10
2018-09-14T02:48:02.102Z,15.10
2018-09-14T02:50:30.282Z,15.00
2018-09-14T02:52:58.426Z,15.00
2018-09-14T02:55:26.630Z,15.00
2018-09-14T02:57:54.823Z,15.00
2018-09-14T03:00:23.011Z,15.00
2018-09-14T03:02:51.898Z,15.00
2018-09-14T03:05:20.770Z,15.10
2018-09-14T03:07:48.975Z,15.10
2018-09-14T03:10:17.137Z,15.10
2018-09-14T03:12:45.306Z,15.10
2018-09-14T03:15:13.502Z,15.10
2018-09-14T03:17:41.698Z,15.00
2018-09-14T03:20:09.870Z,15.00
2018-09-14T03:22:38.065Z,15.00
2018-09-14T03:25:06.246Z,15.00
2018-09-14T03:27:34.462Z,15.00
2018-09-14T03:30:02.643Z,15.00
2018-09-14T03:32:32.194Z,15.00
2018-09-14T03:35:00.418Z,15.10
2018-09-14T03:37:28.926Z,15.10
2018-09-14T03:39:57.122Z,15.00
2018-09-14T03:42:26.345Z,15.00
2018-09-14T03:44:54.522Z,15.00
2018-09-14T03:47:23.214Z,15.00
2018-09-14T03:49:51.382Z,14.90
2018-09-14T03:52:19.818Z,15.00
2018-09-14T03:54:54.157Z,15.00
2018-09-14T03:57:22.402Z,15.00
2018-09-14T03:59:50.538Z,15.00
2018-09-14T04:02:18.709Z,14.90
2018-09-14T04:04:46.901Z,14.90
2018-09-14T04:07:15.114Z,14.90
2018-09-14T04:09:43.253Z,14.90
2018-09-14T04:12:11.459Z,14.90
2018-09-14T04:14:39.634Z,14.80
2018-09-14T04:17:07.818Z,14.90
2018-09-14T04:19:35.990Z,14.90
2018-09-14T04:22:04.209Z,14.80
2018-09-14T04:24:32.350Z,14.80
2018-09-14T04:27:00.518Z,14.90
2018-09-14T04:29:29.574Z,14.90
2018-09-14T04:31:57.762Z,14.90
2018-09-14T04:34:32.082Z,14.90
2018-09-14T04:37:00.258Z,14.80
2018-09-14T04:39:30.250Z,14.80
2018-09-14T04:41:58.487Z,14.80
2018-09-14T04:44:26.645Z,14.80
2018-09-14T04:46:55.282Z,14.80
2018-09-14T04:49:23.458Z,14.80
2018-09-14T04:51:51.653Z,14.80
2018-09-14T04:54:19.837Z,14.80
2018-09-14T04:56:48.021Z,14.80
2018-09-14T04:59:16.557Z,14.90
2018-09-14T05:01:44.718Z,14.90
2018-09-14T05:04:12.919Z,14.90
2018-09-14T05:06:41.113Z,14.90
2018-09-14T05:09:09.399Z,14.90
2018-09-14T05:11:37.578Z,14.90
2018-09-14T05:14:05.780Z,14.90
2018-09-14T05:16:33.962Z,14.90
2018-09-14T05:19:02.362Z,14.90
2018-09-14T05:21:30.578Z,15.00
2018-09-14T05:23:58.770Z,15.00
2018-09-14T05:26:27.446Z,15.00
2018-09-14T05:28:55.617Z,15.00
2018-09-14T05:31:24.026Z,15.00
2018-09-14T05:33:52.218Z,15.00
2018-09-14T05:36:20.981Z,15.00
2018-09-14T05:38:49.197Z,15.00
2018-09-14T05:41:17.355Z,15.00
2018-09-14T05:43:45.569Z,15.00
2018-09-14T05:46:13.785Z,15.00
2018-09-14T05:48:41.929Z,15.00
2018-09-14T05:51:10.346Z,15.00
2018-09-14T05:53:38.513Z,15.00
2018-09-14T05:56:06.866Z,15.10
2018-09-14T05:58:35.014Z,15.20
2018-09-14T06:01:03.178Z,15.20
2018-09-14T06:03:31.331Z,15.30
2018-09-14T06:06:00.417Z,15.30
2018-09-14T06:08:29.394Z,15.40
2018-09-14T06:10:58.131Z,15.50
2018-09-14T06:13:26.565Z,15.60
2018-09-14T06:15:54.757Z,15.70
2018-09-14T06:18:22.931Z,15.80
2018-09-14T06:20:51.132Z,15.80
2018-09-14T06:23:19.290Z,15.90
2018-09-14T06:25:47.490Z,15.90
2018-09-14T06:28:15.706Z,15.80
2018-09-14T06:30:43.862Z,15.80
2018-09-14T06:33:12.077Z,15.80
2018-09-14T06:35:40.266Z,15.90
2018-09-14T06:38:08.448Z,16.00
2018-09-14T06:40:36.637Z,16.20
2018-09-14T06:43:04.858Z,16.30
2018-09-14T06:45:33.065Z,16.50
2018-09-14T06:48:01.253Z,16.60
2018-09-14T06:50:29.428Z,16.70
2018-09-14T06:52:58.625Z,16.90
2018-09-14T06:55:26.804Z,17.10
2018-09-14T06:57:55.028Z,17.20
2018-09-14T07:00:23.308Z,17.20
2018-09-14T07:02:51.369Z,17.20
2018-09-14T07:05:19.559Z,17.30
2018-09-14T07:07:47.766Z,17.30
2018-09-14T07:10:18.042Z,17.30
2018-09-14T07:12:46.223Z,17.10
2018-09-14T07:15:14.371Z,16.70
2018-09-14T07:17:42.552Z,16.50
2018-09-14T07:20:10.754Z,16.30
2018-09-14T07:22:38.914Z,16.10
2018-09-14T07:25:07.918Z,16.50
2018-09-14T07:27:36.104Z,17.60
2018-09-14T07:30:04.947Z,19.20
2018-09-14T07:32:33.147Z,20.50
2018-09-14T07:35:01.273Z,21.90
2018-09-14T07:37:29.503Z,22.90
2018-09-14T07:39:57.769Z,22.80
2018-09-14T07:42:26.004Z,22.40
2018-09-14T07:44:54.205Z,21.60
2018-09-14T07:47:22.493Z,20.70
2018-09-14T07:49:50.691Z,20.30
2018-09-14T07:52:18.919Z,21.00
2018-09-14T07:54:47.150Z,21.60
2018-09-14T07:57:15.678Z,22.60
2018-09-14T07:59:43.933Z,23.40
2018-09-14T08:02:12.134Z,23.50
2018-09-14T08:04:40.388Z,23.80
2018-09-14T08:07:08.574Z,24.20
2018-09-14T08:09:36.818Z,24.00
2018-09-14T08:12:05.063Z,23.90
2018-09-14T08:14:33.642Z,24.10
2018-09-14T08:17:01.849Z,24.30
2018-09-14T08:19:30.030Z,24.60
2018-09-14T08:21:58.250Z,24.10
2018-09-14T08:24:27.286Z,24.20
2018-09-14T08:26:55.513Z,24.10
2018-09-14T08:29:23.654Z,24.40
2018-09-14T08:31:53.314Z,24.80
2018-09-14T08:34:21.693Z,24.90
2018-09-14T08:36:50.854Z,24.20
2018-09-14T08:39:20.042Z,23.90
2018-09-14T08:41:48.246Z,24.10
2018-09-14T08:44:16.706Z,24.00
2018-09-14T08:46:45.548Z,24.20
2018-09-14T08:49:13.909Z,24.10
2018-09-14T08:51:42.082Z,24.20
2018-09-14T08:54:10.250Z,24.30
2018-09-14T08:56:38.429Z,23.90
2018-09-14T08:59:06.585Z,23.90
2018-09-14T09:01:34.770Z,23.60
2018-09-14T09:04:02.975Z,23.80
2018-09-14T09:06:31.198Z,24.30
2018-09-14T09:09:00.308Z,24.80
2018-09-14T09:11:28.521Z,24.80
2018-09-14T09:13:56.641Z,24.40
2018-09-14T09:16:26.115Z,24.50
2018-09-14T09:18:54.390Z,24.50
2018-09-14T09:21:22.557Z,24.70
2018-09-14T09:23:50.758Z,24.90
2018-09-14T09:26:18.972Z,24.60
2018-09-14T09:28:47.706Z,24.60
2018-09-14T09:31:16.319Z,24.70
2018-09-14T09:33:44.545Z,24.60
2018-09-14T09:36:13.001Z,25.00
2018-09-14T09:38:41.144Z,25.00
2018-09-14T09:41:09.374Z,24.90
2018-09-14T09:43:37.809Z,25.10
2018-09-14T09:46:05.981Z,25.60
2018-09-14T09:48:34.800Z,26.40
2018-09-14T09:51:03.214Z,26.60
2018-09-14T09:53:31.350Z,26.20
2018-09-14T09:55:59.496Z,26.20
2018-09-14T09:58:27.995Z,26.20
2018-09-14T10:01:01.550Z,26.30
2018-09-14T10:03:35.211Z,26.30
2018-09-14T10:06:08.762Z,26.10
2018-09-14T10:08:37.015Z,26.20
2018-09-14T10:11:05.249Z,26.20
2018-09-14T10:13:33.612Z,26.10
2018-09-14T10:16:01.810Z,26.20
2018-09-14T10:18:30.015Z,26.00
2018-09-14T10:20:58.871Z,26.50
2018-09-14T10:23:26.988Z,26.70
2018-09-14T10:25:55.175Z,27.00
2018-09-14T10:28:24.896Z,27.30
2018-09-14T10:30:53.077Z,27.80
2018-09-14T10:33:21.216Z,28.00
2018-09-14T10:35:49.482Z,28.60
2018-09-14T10:38:17.675Z,28.50
2018-09-14T10:40:45.926Z,27.90
2018-09-14T10:43:14.116Z,27.70
2018-09-14T10:45:42.455Z,27.30
2018-09-14T10:48:10.650Z,27.50
2018-09-14T10:50:39.557Z,27.80
2018-09-14T10:53:07.769Z,28.40
2018-09-14T10:55:35.903Z,28.60
2018-09-14T10:58:04.100Z,29.20
2018-09-14T11:00:32.830Z,29.20
2018-09-14T11:03:00.982Z,29.70
2018-09-14T11:05:29.146Z,30.20
2018-09-14T11:07:57.354Z,30.00
2018-09-14T11:10:26.340Z,30.50
2018-09-14T11:12:54.653Z,31.00
2018-09-14T11:15:23.061Z,30.90
2018-09-14T11:17:51.234Z,31.00
2018-09-14T11:20:19.426Z,30.70
2018-09-14T11:22:47.785Z,31.00
2018-09-14T11:25:16.234Z,30.70
2018-09-14T11:27:44.399Z,30.10
2018-09-14T11:30:12.562Z,29.60
2018-09-14T11:32:41.323Z,29.10
2018-09-14T11:35:09.553Z,28.70
2018-09-14T11:37:38.587Z,29.00
2018-09-14T11:40:06.772Z,28.90
2018-09-14T11:42:34.954Z,28.30
2018-09-14T11:45:03.179Z,27.90
2018-09-14T11:47:31.358Z,27.70
2018-09-14T11:49:59.696Z,27.60
2018-09-14T11:52:27.935Z,27.80
2018-09-14T11:54:56.654Z,28.10
2018-09-14T11:57:24.854Z,28.40
2018-09-14T11:59:53.113Z,28.20
2018-09-14T12:02:23.756Z,27.90
2018-09-14T12:04:52.695Z,28.00
2018-09-14T12:07:20.905Z,28.10
2018-09-14T12:09:49.830Z,28.60
2018-09-14T12:12:18.181Z,28.30
2018-09-14T12:14:46.421Z,27.80
2018-09-14T12:17:15.123Z,27.30
2018-09-14T12:19:43.365Z,27.00
2018-09-14T12:22:11.874Z,26.60
2018-09-14T12:24:40.411Z,26.80
2018-09-14T12:27:08.567Z,27.20
2018-09-14T12:29:37.394Z,27.90
2018-09-14T12:32:05.606Z,28.10
2018-09-14T12:34:33.775Z,28.10
2018-09-14T12:37:01.952Z,28.10
2018-09-14T12:39:30.370Z,28.30
2018-09-14T12:41:59.107Z,28.20
2018-09-14T12:44:27.682Z,27.80
2018-09-14T12:46:55.907Z,27.10
2018-09-14T12:49:24.110Z,26.40
2018-09-14T12:51:52.315Z,25.80
2018-09-14T12:54:20.498Z,25.50
2018-09-14T12:56:48.717Z,25.20
2018-09-14T12:59:16.890Z,25.10
2018-09-14T13:01:45.597Z,24.90
2018-09-14T13:04:13.813Z,24.60
2018-09-14T13:06:41.946Z,24.40
2018-09-14T13:09:11.503Z,24.30
2018-09-14T13:11:40.114Z,24.30
2018-09-14T13:14:08.552Z,24.50
2018-09-14T13:16:36.927Z,24.60
2018-09-14T13:19:05.398Z,24.80
2018-09-14T13:21:34.031Z,25.70
2018-09-14T13:24:02.941Z,26.90
2018-09-14T13:26:31.086Z,28.30
2018-09-14T13:28:59.587Z,29.70
2018-09-14T13:31:27.783Z,29.90
2018-09-14T13:33:56.348Z,29.50
2018-09-14T13:36:24.410Z,29.80
2018-09-14T13:38:52.606Z,28.90
2018-09-14T13:41:20.805Z,27.90
2018-09-14T13:43:49.058Z,26.80
2018-09-14T13:46:17.276Z,26.00
2018-09-14T13:48:45.442Z,25.30
2018-09-14T13:51:14.246Z,24.80
2018-09-14T13:53:42.414Z,24.70
2018-09-14T13:56:10.564Z,24.70
2018-09-14T13:58:38.754Z,24.60
2018-09-14T14:01:07.055Z,24.50
2018-09-14T14:03:35.181Z,24.20
2018-09-14T14:06:03.354Z,24.10
2018-09-14T14:08:31.538Z,24.50
2018-09-14T14:10:59.730Z,24.40
2018-09-14T14:13:27.949Z,24.40
2018-09-14T14:15:56.146Z,24.60
2018-09-14T14:18:24.775Z,24.70
2018-09-14T14:20:52.960Z,24.80
2018-09-14T14:23:21.171Z,25.40
2018-09-14T14:25:49.323Z,26.10
2018-09-14T14:28:17.549Z,26.50
2018-09-14T14:30:45.762Z,27.80
2018-09-14T14:33:13.979Z,29.70
2018-09-14T14:35:42.192Z,30.20
2018-09-14T14:38:10.399Z,29.90
2018-09-14T14:40:38.634Z,29.10
2018-09-14T14:43:07.083Z,28.10
2018-09-14T14:45:35.514Z,27.50
2018-09-14T14:48:03.767Z,26.90
2018-09-14T14:50:31.925Z,26.50
2018-09-14T14:53:00.709Z,26.00
2018-09-14T14:55:28.889Z,25.60
2018-09-14T14:57:57.074Z,25.20
2018-09-14T15:00:25.274Z,24.80
2018-09-14T15:02:53.485Z,25.20
2018-09-14T15:05:21.766Z,26.60
2018-09-14T15:07:52.706Z,28.40
2018-09-14T15:10:21.186Z,29.70
2018-09-14T15:12:49.392Z,30.20
2018-09-14T15:15:19.539Z,31.40
2018-09-14T15:17:47.887Z,31.60
2018-09-14T15:20:16.315Z,31.60
2018-09-14T15:22:44.591Z,30.70
2018-09-14T15:25:12.778Z,29.10
2018-09-14T15:27:41.363Z,28.70
2018-09-14T15:30:09.540Z,28.60
2018-09-14T15:32:37.686Z,29.20
2018-09-14T15:35:05.866Z,29.30
2018-09-14T15:37:34.027Z,28.90
2018-09-14T15:40:02.216Z,27.90
2018-09-14T15:42:30.396Z,26.80
2018-09-14T15:44:58.602Z,25.60
2018-09-14T15:47:26.826Z,24.90
2018-09-14T15:49:54.999Z,24.60
2018-09-14T15:52:23.142Z,24.30
2018-09-14T15:54:51.333Z,24.20
2018-09-14T15:57:19.998Z,24.10
2018-09-14T15:59:48.882Z,24.00
2018-09-14T16:02:17.055Z,23.90
2018-09-14T16:04:45.218Z,23.80
2018-09-14T16:07:13.736Z,23.50
2018-09-14T16:09:41.924Z,23.30
2018-09-14T16:12:10.127Z,23.10
2018-09-14T16:14:38.366Z,22.90
2018-09-14T16:17:06.831Z,22.70
2018-09-14T16:19:35.247Z,22.60
2018-09-14T16:22:03.740Z,22.40
2018-09-14T16:24:31.905Z,22.20
2018-09-14T16:27:00.408Z,22.10
2018-09-14T16:29:28.606Z,22.00
2018-09-14T16:31:56.808Z,21.80
2018-09-14T16:34:24.982Z,21.70
2018-09-14T16:36:53.768Z,21.50
2018-09-14T16:39:21.984Z,21.40
2018-09-14T16:41:50.126Z,21.40
2018-09-14T16:44:18.397Z,21.70
2018-09-14T16:46:46.583Z,22.00
2018-09-14T16:49:14.754Z,22.10
2018-09-14T16:51:43.004Z,22.00
2018-09-14T16:54:11.066Z,21.90
2018-09-14T16:56:39.238Z,21.70
2018-09-14T16:59:07.418Z,21.60
2018-09-14T17:01:35.623Z,21.50
2018-09-14T17:04:03.811Z,21.30
2018-09-14T17:06:31.981Z,21.00
2018-09-14T17:09:00.539Z,20.90
2018-09-14T17:11:28.748Z,20.70
2018-09-14T17:13:56.930Z,20.60
2018-09-14T17:16:25.093Z,20.40
2018-09-14T17:18:53.690Z,20.30
2018-09-14T17:21:21.976Z,20.20
2018-09-14T17:23:50.100Z,20.10
2018-09-14T17:26:18.270Z,19.90
2018-09-14T17:28:47.279Z,19.70
2018-09-14T17:31:15.481Z,19.60
2018-09-14T17:33:43.706Z,19.50
2018-09-14T17:36:11.917Z,19.30
2018-09-14T17:38:40.103Z,19.30
2018-09-14T17:41:08.402Z,19.20
2018-09-14T17:43:36.677Z,19.20
2018-09-14T17:46:04.898Z,19.20
2018-09-14T17:48:33.099Z,19.20
2018-09-14T17:51:01.266Z,19.20
2018-09-14T17:53:30.198Z,19.20
2018-09-14T17:55:58.394Z,19.20
2018-09-14T17:58:26.585Z,19.20
2018-09-14T18:00:54.779Z,19.30
2018-09-14T18:03:23.157Z,19.30
2018-09-14T18:05:51.222Z,19.30
2018-09-14T18:08:19.402Z,19.30
2018-09-14T18:10:47.605Z,19.30
2018-09-14T18:13:15.831Z,19.30
2018-09-14T18:15:44.429Z,19.30
2018-09-14T18:18:12.570Z,19.30
2018-09-14T18:20:40.799Z,19.30
2018-09-14T18:23:09.018Z,19.30
2018-09-14T18:25:37.162Z,19.20
2018-09-14T18:28:05.568Z,19.10
2018-09-14T18:30:33.654Z,19.10
2018-09-14T18:33:01.845Z,19.00
2018-09-14T18:35:30.026Z,18.90
2018-09-14T18:37:58.226Z,18.90
2018-09-14T18:40:26.462Z,18.80
2018-09-14T18:42:54.665Z,18.80
2018-09-14T18:45:22.920Z,18.70
2018-09-14T18:47:51.415Z,18.50
2018-09-14T18:50:20.413Z,18.40
2018-09-14T18:52:48.609Z,18.40
2018-09-14T18:55:16.854Z,18.30
2018-09-14T18:57:45.039Z,18.30
2018-09-14T19:00:13.897Z,18.20
2018-09-14T19:02:42.107Z,18.20
2018-09-14T19:05:11.164Z,18.10
2018-09-14T19:07:39.377Z,18.10
2018-09-14T19:10:07.604Z,18.10
2018-09-14T19:12:36.494Z,18.00
2018-09-14T19:15:05.004Z,17.90
2018-09-14T19:17:33.292Z,17.90
2018-09-14T19:20:01.609Z,17.90
2018-09-14T19:22:29.790Z,17.70
2018-09-14T19:24:58.021Z,17.50
2018-09-14T19:27:26.230Z,17.40
2018-09-14T19:29:54.382Z,17.20
2018-09-14T19:32:22.672Z,17.10
2018-09-14T19:34:50.898Z,17.00
2018-09-14T19:37:19.166Z,17.00
2018-09-14T19:39:48.182Z,17.00
2018-09-14T19:42:16.404Z,17.00
2018-09-14T19:44:45.235Z,16.90
2018-09-14T19:47:13.457Z,16.80
2018-09-14T19:49:41.612Z,16.70
2018-09-14T19:52:09.802Z,16.70
2018-09-14T19:54:38.788Z,16.60
2018-09-14T19:57:06.986Z,16.70
2018-09-14T19:59:35.214Z,16.70
2018-09-14T20:02:03.359Z,16.70
2018-09-14T20:04:31.524Z,16.70
2018-09-14T20:06:59.711Z,16.60
2018-09-14T20:09:27.910Z,16.60
2018-09-14T20:11:56.077Z,16.60
2018-09-14T20:14:24.956Z,16.60
2018-09-14T20:16:53.855Z,16.50
2018-09-14T20:19:22.251Z,16.40
2018-09-14T20:21:50.513Z,16.30
2018-09-14T20:24:18.701Z,16.20
2018-09-14T20:26:46.890Z,16.10
2018-09-14T20:29:15.050Z,16.00
2018-09-14T20:31:43.278Z,16.00
2018-09-14T20:34:11.464Z,16.10
2018-09-14T20:36:39.654Z,16.10
2018-09-14T20:39:09.705Z,16.20
2018-09-14T20:41:38.466Z,16.20
2018-09-14T20:44:07.238Z,16.20
2018-09-14T20:46:36.634Z,16.30
2018-09-14T20:49:04.845Z,16.30
2018-09-14T20:51:35.020Z,16.30
2018-09-14T20:54:03.139Z,16.40
2018-09-14T20:56:31.322Z,16.50
2018-09-14T20:58:59.469Z,16.40
2018-09-14T21:01:28.075Z,16.40
2018-09-14T21:03:56.265Z,16.30
2018-09-14T21:06:24.477Z,16.20
2018-09-14T21:08:54.543Z,16.10
2018-09-14T21:11:24.666Z,16.00
2018-09-14T21:13:52.885Z,15.90
2018-09-14T21:16:21.083Z,15.90
2018-09-14T21:18:49.584Z,15.90
2018-09-14T21:21:17.767Z,15.90
2018-09-14T21:23:46.938Z,15.90
2018-09-14T21:26:15.109Z,15.90
2018-09-14T21:28:43.290Z,15.90
2018-09-14T21:31:11.427Z,15.80
2018-09-14T21:33:39.619Z,15.90
2018-09-14T21:36:07.903Z,16.00
2018-09-14T21:38:36.701Z,16.10
2018-09-14T21:41:05.650Z,16.20
2018-09-14T21:43:33.848Z,16.30
2018-09-14T21:46:02.078Z,16.40
2018-09-14T21:48:32.110Z,16.40
2018-09-14T21:51:00.286Z,16.50
2018-09-14T21:53:28.460Z,16.50
2018-09-14T21:55:56.658Z,16.40
2018-09-14T21:58:25.172Z,16.30
2018-09-14T22:00:58.884Z,16.20
2018-09-14T22:03:27.046Z,16.10
2018-09-14T22:05:55.453Z,16.10
2018-09-14T22:08:23.710Z,16.00
2018-09-14T22:10:51.905Z,15.90
2018-09-14T22:13:20.302Z,15.80
2018-09-14T22:15:48.703Z,15.80
2018-09-14T22:18:16.857Z,15.70
2018-09-14T22:20:46.670Z,15.60
2018-09-14T22:23:14.814Z,15.60
2018-09-14T22:25:43.243Z,15.70
2018-09-14T22:28:11.406Z,15.70
2018-09-14T22:30:40.342Z,15.70
2018-09-14T22:33:08.505Z,15.50
2018-09-14T22:35:37.665Z,15.50
2018-09-14T22:38:05.837Z,15.40
2018-09-14T22:40:34.382Z,15.30
2018-09-14T22:43:02.890Z,15.20
2018-09-14T22:45:31.695Z,15.10
2018-09-14T22:48:05.988Z,15.10
2018-09-14T22:50:34.385Z,15.00
2018-09-14T22:53:02.563Z,15.00
2018-09-14T22:55:32.680Z,15.00
2018-09-14T22:58:00.797Z,14.90
2018-09-14T23:00:34.543Z,14.90
2018-09-14T23:03:04.184Z,14.90
2018-09-14T23:05:32.346Z,14.80
2018-09-14T23:08:00.555Z,14.60
2018-09-14T23:10:28.713Z,14.40
2018-09-14T23:12:57.318Z,14.20
2018-09-14T23:15:25.778Z,14.00
2018-09-14T23:17:53.955Z,13.80
2018-09-14T23:20:22.151Z,13.50
2018-09-14T23:22:50.316Z,13.40
2018-09-14T23:25:18.508Z,13.30
2018-09-14T23:28:49.968Z,13.30
2018-09-14T23:31:18.141Z,13.40
2018-09-14T23:33:46.321Z,13.70
2018-09-14T23:36:14.490Z,13.80
2018-09-14T23:38:43.408Z,13.90
2018-09-14T23:41:11.612Z,13.90
2018-09-14T23:43:39.767Z,13.80
2018-09-14T23:46:07.941Z,13.70
2018-09-14T23:48:36.201Z,13.60
2018-09-14T23:51:04.359Z,13.50
2018-09-14T23:53:33.065Z,13.40
2018-09-14T23:56:01.323Z,13.40
2018-09-14T23:58:29.417Z,13.40
